createdAt,value
2023-01-13T00:01:38.257Z,10.00
2023-01-13T00:04:05.051Z,9.48
2023-01-13T00:06:31.650Z,9.82
2023-01-13T00:08:58.292Z,9.78
2023-01-13T00:11:26.260Z,9.34
2023-01-13T00:13:52.833Z,9.86
2023-01-13T00:16:20.292Z,9.82
2023-01-13T00:18:47.949Z,9.28
2023-01-13T00:21:18.349Z,9.10
2023-01-13T00:23:46.009Z,9.46
2023-01-13T00:26:16.728Z,9.03
2023-01-13T00:28:43.361Z,9.31
2023-01-13T00:31:15.643Z,9.12
2023-01-13T00:33:42.239Z,9.21
2023-01-13T00:36:12.587Z,9.22
2023-01-13T00:38:39.748Z,8.98
2023-01-13T00:41:11.607Z,8.94
2023-01-13T00:43:38.242Z,8.78
2023-01-13T00:46:06.892Z,8.72
2023-01-13T00:48:34.387Z,8.62
2023-01-13T00:51:03.880Z,8.52
2023-01-13T00:53:34.687Z,8.30
2023-01-13T00:56:14.257Z,8.72
2023-01-13T00:58:41.649Z,8.73
2023-01-13T01:01:14.370Z,8.22
2023-01-13T01:03:40.914Z,8.72
2023-01-13T01:06:11.008Z,8.48
2023-01-13T01:08:37.612Z,8.48
2023-01-13T01:11:16.994Z,8.48
2023-01-13T01:13:44.697Z,8.40
2023-01-13T01:16:14.586Z,8.63
2023-01-13T01:18:43.728Z,8.62
2023-01-13T01:21:11.351Z,8.25
2023-01-13T01:23:38.659Z,8.24
2023-01-13T01:26:12.641Z,8.22
2023-01-13T01:28:39.797Z,8.72
2023-01-13T01:31:08.435Z,8.34
2023-01-13T01:33:35.105Z,8.39
2023-01-13T01:36:02.915Z,8.44
2023-01-13T01:38:30.600Z,8.84
2023-01-13T01:40:57.168Z,8.76
2023-01-13T01:44:00.116Z,8.86
2023-01-13T01:46:32.834Z,8.99
2023-01-13T01:49:08.794Z,8.89
2023-01-13T01:51:42.753Z,8.70
2023-01-13T01:54:13.142Z,8.39
2023-01-13T01:56:43.207Z,8.10
2023-01-13T01:59:10.286Z,8.00
2023-01-13T02:01:39.410Z,8.48
2023-01-13T02:04:13.727Z,8.27
2023-01-13T02:06:41.142Z,7.89
2023-01-13T02:09:08.424Z,7.92
2023-01-13T02:11:54.670Z,7.94
2023-01-13T02:14:26.594Z,7.82
2023-01-13T02:17:21.053Z,8.30
2023-01-13T02:20:28.540Z,8.31
2023-01-13T02:24:22.163Z,8.30
2023-01-13T02:27:07.662Z,8.28
2023-01-13T02:30:34.651Z,8.17
2023-01-13T02:33:26.777Z,8.27
2023-01-13T02:36:17.919Z,8.14
2023-01-13T02:38:56.871Z,8.26
2023-01-13T02:41:47.534Z,8.12
2023-01-13T02:44:20.330Z,7.87
2023-01-13T02:47:10.353Z,8.09
2023-01-13T02:49:47.770Z,8.16
2023-01-13T02:52:21.708Z,7.99
2023-01-13T02:54:55.037Z,8.12
2023-01-13T02:57:24.019Z,7.64
2023-01-13T02:59:54.254Z,8.04
2023-01-13T03:02:23.498Z,8.20
2023-01-13T03:04:58.400Z,8.07
2023-01-13T03:07:53.289Z,8.12
2023-01-13T03:10:48.171Z,8.44
2023-01-13T03:13:33.316Z,8.32
2023-01-13T03:16:15.137Z,8.60
2023-01-13T03:19:01.379Z,8.65
2023-01-13T03:21:51.494Z,8.74
2023-01-13T03:24:22.789Z,8.17
2023-01-13T03:27:02.727Z,8.72
2023-01-13T03:29:37.280Z,8.06
2023-01-13T03:32:11.796Z,8.88
2023-01-13T03:34:47.241Z,8.81
2023-01-13T03:37:16.842Z,8.70
2023-01-13T03:39:50.735Z,8.58
2023-01-13T03:42:23.126Z,8.78
2023-01-13T03:45:07.438Z,8.41
2023-01-13T03:47:33.911Z,8.95
2023-01-13T03:50:03.007Z,8.94
2023-01-13T03:52:34.627Z,8.43
2023-01-13T03:55:08.244Z,8.69
2023-01-13T03:57:42.857Z,8.38
2023-01-13T04:00:12.511Z,8.82
2023-01-13T04:03:02.621Z,8.91
2023-01-13T04:05:30.720Z,8.68
2023-01-13T04:08:21.532Z,8.94
2023-01-13T04:10:56.244Z,8.79
2023-01-13T04:13:26.094Z,9.03
2023-01-13T04:15:52.872Z,9.06
2023-01-13T04:18:24.543Z,9.20
2023-01-13T04:20:53.598Z,8.79
2023-01-13T04:23:21.664Z,9.08
2023-01-13T04:25:49.196Z,9.09
2023-01-13T04:28:16.201Z,9.08
2023-01-13T04:30:43.073Z,8.85
2023-01-13T04:33:13.523Z,8.62
2023-01-13T04:35:40.423Z,9.19
2023-01-13T04:38:12.849Z,9.23
2023-01-13T04:40:41.004Z,8.99
2023-01-13T04:43:08.376Z,8.87
2023-01-13T04:45:36.370Z,8.56
2023-01-13T04:48:03.315Z,8.81
2023-01-13T04:50:29.924Z,8.71
2023-01-13T04:52:56.935Z,8.86
2023-01-13T04:55:24.806Z,8.74
2023-01-13T04:57:51.750Z,8.87
2023-01-13T05:00:20.496Z,8.34
2023-01-13T05:02:49.661Z,8.88
2023-01-13T05:05:16.580Z,8.39
2023-01-13T05:07:43.098Z,8.80
2023-01-13T05:10:10.203Z,8.85
2023-01-13T05:12:55.450Z,8.84
2023-01-13T05:15:40.916Z,8.82
2023-01-13T05:18:07.846Z,8.73
2023-01-13T05:20:34.460Z,8.54
2023-01-13T05:23:19.582Z,8.42
2023-01-13T05:25:47.864Z,8.57
2023-01-13T05:28:14.852Z,7.90
2023-01-13T05:30:44.257Z,8.40
2023-01-13T05:33:12.212Z,8.37
2023-01-13T05:35:40.512Z,8.37
2023-01-13T05:38:07.114Z,8.37
2023-01-13T05:40:52.259Z,8.43
2023-01-13T05:43:24.578Z,8.22
2023-01-13T05:45:58.521Z,8.71
2023-01-13T05:48:34.422Z,8.30
2023-01-13T05:51:02.870Z,8.30
2023-01-13T05:53:29.914Z,8.69
2023-01-13T05:55:56.646Z,8.59
2023-01-13T05:58:25.125Z,8.04
2023-01-13T06:00:51.964Z,8.69
2023-01-13T06:03:21.977Z,8.91
2023-01-13T06:05:48.826Z,8.60
2023-01-13T06:08:16.576Z,8.40
2023-01-13T06:10:43.067Z,8.78
2023-01-13T06:13:10.497Z,8.21
2023-01-13T06:15:37.077Z,8.45
2023-01-13T06:18:04.874Z,8.30
2023-01-13T06:20:32.200Z,8.19
2023-01-13T06:22:59.098Z,8.18
2023-01-13T06:25:46.974Z,7.67
2023-01-13T06:28:13.542Z,8.18
2023-01-13T06:30:46.622Z,8.00
2023-01-13T06:33:18.483Z,7.88
2023-01-13T06:35:51.070Z,7.96
2023-01-13T06:38:19.766Z,7.84
2023-01-13T06:40:47.157Z,7.77
2023-01-13T06:43:17.445Z,7.85
2023-01-13T06:45:53.353Z,7.63
2023-01-13T06:48:23.441Z,7.71
2023-01-13T06:50:50.068Z,7.60
2023-01-13T06:53:16.649Z,7.76
2023-01-13T06:55:43.212Z,7.71
2023-01-13T06:58:09.822Z,7.14
2023-01-13T07:00:37.230Z,7.15
2023-01-13T07:03:15.039Z,7.50
2023-01-13T07:05:43.691Z,7.24
2023-01-13T07:08:10.696Z,7.63
2023-01-13T07:10:38.015Z,7.47
2023-01-13T07:13:23.905Z,7.64
2023-01-13T07:15:54.737Z,7.60
2023-01-13T07:18:21.403Z,7.26
2023-01-13T07:21:08.546Z,7.91
2023-01-13T07:23:37.662Z,7.99
2023-01-13T07:26:04.606Z,8.32
2023-01-13T07:28:32.194Z,8.23
2023-01-13T07:30:59.161Z,8.16
2023-01-13T07:33:26.109Z,7.97
2023-01-13T07:36:01.369Z,7.54
2023-01-13T07:38:28.302Z,7.38
2023-01-13T07:40:54.832Z,7.43
2023-01-13T07:43:33.915Z,7.95
2023-01-13T07:46:04.386Z,7.68
2023-01-13T07:48:32.903Z,7.46
2023-01-13T07:51:04.062Z,7.92
2023-01-13T07:53:30.604Z,7.94
2023-01-13T07:55:58.501Z,7.96
2023-01-13T07:58:26.085Z,8.03
2023-01-13T08:00:53.422Z,8.09
2023-01-13T08:03:20.712Z,8.08
2023-01-13T08:05:47.413Z,8.05
2023-01-13T08:08:14.665Z,8.18
2023-01-13T08:10:41.517Z,7.66
2023-01-13T08:13:18.460Z,8.23
2023-01-13T08:15:47.017Z,8.22
2023-01-13T08:18:13.824Z,8.22
2023-01-13T08:20:40.486Z,8.23
2023-01-13T08:23:07.664Z,8.44
2023-01-13T08:25:34.596Z,8.53
2023-01-13T08:28:01.168Z,8.58
2023-01-13T08:30:28.499Z,8.72
2023-01-13T08:32:55.261Z,8.37
2023-01-13T08:35:22.440Z,9.00
2023-01-13T08:37:50.029Z,8.69
2023-01-13T08:40:18.091Z,9.26
2023-01-13T08:42:45.924Z,9.30
2023-01-13T08:45:14.046Z,9.54
2023-01-13T08:47:40.642Z,9.58
2023-01-13T08:50:08.030Z,9.69
2023-01-13T08:52:35.307Z,9.61
2023-01-13T08:55:01.975Z,9.68
2023-01-13T08:57:28.727Z,9.70
2023-01-13T08:59:55.719Z,9.71
2023-01-13T09:02:24.041Z,9.74
2023-01-13T09:04:51.223Z,9.79
2023-01-13T09:07:18.411Z,10.00
2023-01-13T09:09:45.044Z,10.11
2023-01-13T09:12:31.904Z,10.27
2023-01-13T09:14:58.581Z,10.01
2023-01-13T09:17:25.104Z,10.64
2023-01-13T09:19:51.864Z,10.30
2023-01-13T09:22:20.103Z,10.90
2023-01-13T09:24:46.866Z,10.68
2023-01-13T09:27:15.193Z,10.73
2023-01-13T09:29:42.051Z,11.35
2023-01-13T09:32:12.235Z,11.17
2023-01-13T09:34:57.401Z,10.88
2023-01-13T09:37:24.368Z,10.66
2023-01-13T09:39:50.923Z,10.32
2023-01-13T09:42:45.047Z,10.36
2023-01-13T09:45:23.252Z,10.27
2023-01-13T09:47:51.791Z,10.13
2023-01-13T09:50:20.516Z,9.89
2023-01-13T09:52:47.027Z,9.59
2023-01-13T09:55:17.249Z,9.46
2023-01-13T09:57:43.953Z,9.28
2023-01-13T10:00:13.908Z,8.83
2023-01-13T10:03:04.246Z,9.27
2023-01-13T10:05:36.840Z,9.03
2023-01-13T10:08:18.960Z,9.65
2023-01-13T10:10:48.872Z,9.01
2023-01-13T10:13:25.103Z,10.02
2023-01-13T10:16:01.994Z,10.15
2023-01-13T10:18:41.524Z,10.10
2023-01-13T10:21:24.734Z,9.88
2023-01-13T10:24:07.155Z,9.74
2023-01-13T10:26:44.643Z,9.48
2023-01-13T10:29:29.069Z,9.23
2023-01-13T10:31:58.273Z,8.95
2023-01-13T10:34:26.357Z,8.74
2023-01-13T10:37:00.962Z,8.54
2023-01-13T10:39:28.005Z,8.36
2023-01-13T10:42:25.336Z,8.31
2023-01-13T10:44:54.397Z,8.16
2023-01-13T10:47:30.443Z,8.19
2023-01-13T10:50:09.678Z,7.67
2023-01-13T10:52:42.766Z,8.44
2023-01-13T10:55:33.358Z,8.53
2023-01-13T10:58:20.223Z,8.56
2023-01-13T11:00:48.288Z,8.50
2023-01-13T11:03:23.550Z,8.61
2023-01-13T11:05:55.989Z,8.63
2023-01-13T11:08:31.978Z,8.24
2023-01-13T11:10:59.835Z,8.78
2023-01-13T11:13:30.208Z,8.35
2023-01-13T11:16:16.508Z,8.88
2023-01-13T11:19:11.630Z,8.58
2023-01-13T11:21:43.822Z,9.23
2023-01-13T11:24:42.271Z,9.41
2023-01-13T11:27:17.531Z,9.41
2023-01-13T11:30:11.960Z,9.27
2023-01-13T11:33:15.707Z,9.38
2023-01-13T11:35:47.315Z,9.34
2023-01-13T11:38:33.739Z,8.72
2023-01-13T11:41:28.596Z,9.37
2023-01-13T11:44:12.701Z,9.36
2023-01-13T11:46:40.730Z,9.38
2023-01-13T11:49:16.913Z,9.08
2023-01-13T11:51:52.465Z,8.91
2023-01-13T11:54:28.099Z,8.76
2023-01-13T11:57:07.059Z,8.70
2023-01-13T12:00:01.289Z,8.49
2023-01-13T12:03:10.374Z,7.56
2023-01-13T12:05:40.391Z,7.91
2023-01-13T12:08:18.577Z,8.15
2023-01-13T12:10:45.055Z,8.17
2023-01-13T12:13:20.590Z,8.16
2023-01-13T12:16:06.861Z,7.94
2023-01-13T12:18:38.615Z,8.30
2023-01-13T12:21:12.406Z,8.30
2023-01-13T12:23:46.929Z,8.36
2023-01-13T12:26:16.652Z,8.31
2023-01-13T12:29:05.170Z,8.39
2023-01-13T12:31:36.623Z,8.57
2023-01-13T12:34:30.064Z,8.77
2023-01-13T12:37:16.063Z,8.82
2023-01-13T12:39:54.294Z,8.93
2023-01-13T12:42:50.957Z,8.65
2023-01-13T12:45:24.684Z,8.99
2023-01-13T12:47:51.501Z,8.96
2023-01-13T12:50:27.269Z,9.09
2023-01-13T12:52:55.904Z,9.13
2023-01-13T12:55:31.058Z,8.50
2023-01-13T12:58:06.628Z,8.80
2023-01-13T13:00:39.286Z,8.75
2023-01-13T13:03:15.217Z,8.69
2023-01-13T13:06:07.306Z,8.66
2023-01-13T13:08:46.312Z,8.66
2023-01-13T13:11:32.727Z,8.80
2023-01-13T13:14:01.407Z,8.80
2023-01-13T13:16:29.384Z,8.93
2023-01-13T13:19:17.905Z,9.00
2023-01-13T13:22:07.083Z,9.10
2023-01-13T13:24:33.686Z,9.11
2023-01-13T13:27:16.615Z,8.69
2023-01-13T13:29:59.494Z,8.77
2023-01-13T13:32:38.259Z,9.35
2023-01-13T13:35:13.942Z,9.42
2023-01-13T13:38:20.921Z,9.48
2023-01-13T13:41:06.774Z,9.25
2023-01-13T13:43:58.944Z,9.52
2023-01-13T13:46:46.599Z,9.45
2023-01-13T13:49:17.894Z,9.39
2023-01-13T13:52:03.985Z,9.12
2023-01-13T13:54:32.360Z,9.47
2023-01-13T13:56:59.351Z,9.45
2023-01-13T13:59:30.543Z,8.92
2023-01-13T14:02:03.969Z,9.52
2023-01-13T14:04:33.730Z,8.92
2023-01-13T14:07:06.144Z,9.65
2023-01-13T14:09:44.005Z,9.48
2023-01-13T14:12:30.295Z,9.65
2023-01-13T14:14:57.541Z,9.69
2023-01-13T14:17:28.038Z,9.62
2023-01-13T14:20:05.353Z,9.48
2023-01-13T14:22:34.088Z,9.10
2023-01-13T14:25:02.053Z,9.61
2023-01-13T14:27:30.494Z,9.66
2023-01-13T14:29:59.367Z,9.58
2023-01-13T14:32:36.437Z,9.64
2023-01-13T14:35:06.460Z,9.25
2023-01-13T14:37:41.738Z,9.48
2023-01-13T14:40:33.354Z,9.79
2023-01-13T14:43:00.506Z,9.77
2023-01-13T14:45:27.198Z,9.21
2023-01-13T14:47:54.250Z,9.74
2023-01-13T14:50:28.085Z,9.69
2023-01-13T14:52:57.092Z,9.77
2023-01-13T14:55:38.478Z,9.33
2023-01-13T14:58:30.852Z,9.34
2023-01-13T15:01:25.511Z,9.78
2023-01-13T15:03:52.093Z,9.77
2023-01-13T15:06:24.252Z,9.38
2023-01-13T15:08:50.974Z,9.29
2023-01-13T15:11:25.066Z,9.58
2023-01-13T15:14:01.104Z,9.65
2023-01-13T15:16:29.296Z,9.59
2023-01-13T15:18:56.420Z,9.02
2023-01-13T15:21:23.292Z,9.69
2023-01-13T15:23:49.969Z,9.60
2023-01-13T15:26:21.699Z,9.49
2023-01-13T15:28:49.490Z,9.21
2023-01-13T15:31:16.451Z,8.87
2023-01-13T15:33:43.329Z,9.63
2023-01-13T15:36:28.565Z,9.14
2023-01-13T15:38:55.887Z,9.63
2023-01-13T15:41:42.635Z,9.61
2023-01-13T15:44:32.293Z,9.60
2023-01-13T15:47:06.269Z,9.50
2023-01-13T15:49:46.430Z,9.49
2023-01-13T15:52:21.809Z,9.32
2023-01-13T15:54:48.981Z,9.28
2023-01-13T15:57:22.086Z,9.34
2023-01-13T15:59:49.021Z,9.41
2023-01-13T16:02:18.204Z,9.42
2023-01-13T16:04:45.529Z,9.48
2023-01-13T16:07:15.072Z,8.96
2023-01-13T16:09:41.962Z,8.99
2023-01-13T16:12:08.486Z,9.54
2023-01-13T16:14:34.948Z,9.40
2023-01-13T16:17:03.126Z,9.45
2023-01-13T16:19:29.661Z,9.26
2023-01-13T16:21:58.798Z,9.38
2023-01-13T16:24:25.313Z,9.52
2023-01-13T16:26:51.849Z,8.86
2023-01-13T16:29:18.460Z,8.90
2023-01-13T16:31:45.025Z,9.45
2023-01-13T16:34:11.577Z,9.49
2023-01-13T16:36:38.163Z,9.36
2023-01-13T16:39:17.994Z,9.23
2023-01-13T16:41:44.544Z,9.14
2023-01-13T16:44:10.994Z,8.40
2023-01-13T16:46:37.458Z,8.81
2023-01-13T16:49:05.944Z,8.62
2023-01-13T16:51:33.519Z,8.22
2023-01-13T16:54:00.047Z,8.39
2023-01-13T16:56:32.029Z,8.45
2023-01-13T16:59:03.413Z,7.89
2023-01-13T17:01:32.274Z,8.48
2023-01-13T17:04:00.112Z,7.86
2023-01-13T17:06:40.762Z,8.38
2023-01-13T17:09:27.727Z,8.24
2023-01-13T17:11:54.899Z,7.60
2023-01-13T17:14:23.349Z,7.95
2023-01-13T17:16:51.967Z,8.57
2023-01-13T17:19:19.788Z,8.26
2023-01-13T17:21:47.146Z,8.66
2023-01-13T17:24:14.471Z,8.24
2023-01-13T17:26:51.327Z,8.21
2023-01-13T17:29:22.075Z,8.63
2023-01-13T17:31:50.316Z,8.61
2023-01-13T17:34:17.473Z,8.04
2023-01-13T17:36:43.995Z,8.53
2023-01-13T17:39:18.790Z,8.51
2023-01-13T17:41:46.040Z,8.64
2023-01-13T17:44:15.685Z,8.21
2023-01-13T17:46:42.944Z,8.47
2023-01-13T17:49:14.348Z,8.52
2023-01-13T17:51:41.169Z,8.61
2023-01-13T17:54:11.952Z,8.17
2023-01-13T17:56:40.393Z,8.38
2023-01-13T17:59:08.928Z,8.73
2023-01-13T18:01:36.747Z,8.84
2023-01-13T18:04:03.560Z,8.62
2023-01-13T18:06:30.559Z,8.83
2023-01-13T18:08:59.532Z,8.69
2023-01-13T18:11:26.902Z,8.71
2023-01-13T18:13:55.179Z,8.76
2023-01-13T18:16:21.988Z,8.77
2023-01-13T18:18:51.588Z,8.59
2023-01-13T18:21:42.782Z,8.38
2023-01-13T18:24:35.216Z,8.72
2023-01-13T18:27:22.427Z,8.83
2023-01-13T18:29:51.463Z,8.85
2023-01-13T18:32:18.944Z,8.63
2023-01-13T18:34:45.802Z,8.43
2023-01-13T18:37:13.995Z,7.96
2023-01-13T18:39:40.854Z,8.38
2023-01-13T18:42:27.515Z,8.38
2023-01-13T18:44:56.077Z,8.35
2023-01-13T18:47:28.648Z,8.38
2023-01-13T18:49:56.530Z,8.30
2023-01-13T18:52:24.444Z,8.42
2023-01-13T18:54:51.100Z,8.38
2023-01-13T18:57:17.947Z,8.35
2023-01-13T18:59:44.691Z,8.35
2023-01-13T19:02:16.785Z,8.32
2023-01-13T19:04:43.796Z,7.92
2023-01-13T19:07:21.707Z,8.02
2023-01-13T19:09:51.393Z,8.21
2023-01-13T19:12:25.913Z,8.20
2023-01-13T19:15:00.122Z,8.05
2023-01-13T19:17:33.612Z,8.03
2023-01-13T19:20:00.164Z,7.58
2023-01-13T19:22:30.282Z,7.49
2023-01-13T19:24:57.831Z,7.67
2023-01-13T19:27:25.178Z,8.05
2023-01-13T19:29:53.480Z,8.19
2023-01-13T19:32:22.295Z,8.27
2023-01-13T19:34:50.779Z,7.81
2023-01-13T19:37:18.388Z,7.75
2023-01-13T19:39:45.032Z,8.45
2023-01-13T19:42:31.174Z,8.37
2023-01-13T19:45:16.311Z,8.44
2023-01-13T19:47:45.238Z,8.63
2023-01-13T19:50:12.603Z,8.27
2023-01-13T19:52:39.173Z,8.57
2023-01-13T19:55:06.146Z,8.09
2023-01-13T19:57:32.742Z,7.98
2023-01-13T19:59:59.285Z,7.92
2023-01-13T20:02:28.795Z,8.07
2023-01-13T20:04:57.192Z,8.13
2023-01-13T20:07:29.760Z,8.25
2023-01-13T20:09:56.921Z,8.05
2023-01-13T20:12:28.485Z,7.78
2023-01-13T20:14:56.254Z,8.19
2023-01-13T20:17:23.165Z,8.15
2023-01-13T20:19:49.748Z,8.05
2023-01-13T20:22:16.256Z,7.51
2023-01-13T20:24:42.987Z,7.90
2023-01-13T20:27:09.607Z,7.83
2023-01-13T20:29:36.155Z,7.83
2023-01-13T20:32:02.917Z,7.80
2023-01-13T20:34:29.769Z,7.79
2023-01-13T20:36:56.491Z,7.82
2023-01-13T20:39:26.547Z,7.91
2023-01-13T20:42:12.020Z,7.88
2023-01-13T20:44:39.016Z,7.86
2023-01-13T20:47:05.616Z,7.75
2023-01-13T20:49:32.456Z,7.41
2023-01-13T20:51:59.021Z,7.87
2023-01-13T20:54:25.561Z,7.77
2023-01-13T20:56:53.080Z,7.55
2023-01-13T20:59:19.688Z,7.72
2023-01-13T21:01:46.236Z,8.22
2023-01-13T21:04:12.803Z,8.42
2023-01-13T21:06:41.565Z,7.82
2023-01-13T21:09:08.895Z,8.12
2023-01-13T21:11:54.127Z,8.56
2023-01-13T21:14:42.275Z,8.16
2023-01-13T21:17:31.140Z,8.70
2023-01-13T21:19:57.695Z,8.64
2023-01-13T21:22:24.589Z,8.76
2023-01-13T21:24:51.425Z,8.74
2023-01-13T21:27:18.218Z,8.71
2023-01-13T21:29:46.219Z,8.58
2023-01-13T21:32:14.108Z,8.65
2023-01-13T21:34:40.688Z,8.61
2023-01-13T21:37:07.633Z,8.35
2023-01-13T21:39:34.230Z,8.45
2023-01-13T21:42:19.437Z,8.33
2023-01-13T21:45:05.245Z,8.39
2023-01-13T21:47:50.245Z,8.44
2023-01-13T21:50:23.050Z,8.67
2023-01-13T21:52:52.551Z,8.25
2023-01-13T21:55:24.729Z,8.30
2023-01-13T21:57:54.263Z,8.85
2023-01-13T22:00:23.392Z,8.41
2023-01-13T22:02:50.146Z,8.91
2023-01-13T22:05:19.378Z,8.82
2023-01-13T22:07:45.972Z,8.84
2023-01-13T22:10:21.335Z,8.85
2023-01-13T22:12:48.420Z,8.87
2023-01-13T22:15:16.572Z,8.81
2023-01-13T22:17:45.380Z,9.09
2023-01-13T22:20:13.193Z,8.62
2023-01-13T22:22:40.217Z,8.89
2023-01-13T22:25:09.528Z,8.66
2023-01-13T22:27:41.023Z,9.03
2023-01-13T22:30:21.616Z,9.14
2023-01-13T22:32:48.168Z,8.61
2023-01-13T22:35:15.651Z,9.05
2023-01-13T22:37:42.889Z,8.69
2023-01-13T22:40:12.009Z,9.11
2023-01-13T22:42:40.268Z,9.21
2023-01-13T22:45:10.352Z,9.20
2023-01-13T22:47:36.918Z,9.09
2023-01-13T22:50:04.884Z,9.03
2023-01-13T22:52:33.363Z,9.03
2023-01-13T22:55:00.787Z,9.13
2023-01-13T22:57:35.980Z,9.04
2023-01-13T23:00:06.327Z,8.59
2023-01-13T23:02:34.468Z,8.82
2023-01-13T23:05:01.492Z,8.66
2023-01-13T23:07:28.170Z,8.12
2023-01-13T23:09:54.723Z,8.11
2023-01-13T23:12:21.319Z,8.04
2023-01-13T23:14:47.901Z,8.21
2023-01-13T23:17:14.490Z,8.40
2023-01-13T23:19:41.092Z,8.19
2023-01-13T23:22:07.624Z,8.24
2023-01-13T23:24:34.211Z,8.06
2023-01-13T23:27:00.846Z,7.94
2023-01-13T23:29:27.477Z,8.16
2023-01-13T23:31:53.947Z,7.98
2023-01-13T23:34:20.540Z,7.46
2023-01-13T23:36:47.091Z,7.98
2023-01-13T23:39:13.817Z,7.08
2023-01-13T23:41:40.423Z,8.09
2023-01-13T23:44:06.997Z,7.95
2023-01-13T23:46:35.148Z,8.08
2023-01-13T23:49:03.543Z,7.77
2023-01-13T23:51:30.478Z,7.73
2023-01-13T23:53:58.831Z,7.67
2023-01-13T23:56:30.488Z,7.45
2023-01-13T23:58:58.003Z,7.70
